Time;durP1;ratioP1;P1;durP2;ratioP2;P2;SDS_P1;SDS_P2;PMS_P1;PMS_P2;Temp;Humidity;BMP_temperature;BMP_pressure;BME280_temperature;BME280_humidity;BME280_pressure;Samples;Min_cycle;Max_cycle;Signal;HPM_P1;HPM_P2
2022/04/10 00:00:17;;;;;;;0.90;0.90;;;;;;;;;;5000853;28;20423;-39
2022/04/10 00:02:44;;;;;;;0.97;0.93;;;;;;;;;;4999413;28;20916;-40
2022/04/10 00:05:10;;;;;;;2.23;1.17;;;;;;;;;;4999788;28;20436;-39
2022/04/10 00:07:36;;;;;;;1.57;1.10;;;;;;;;;;5000060;28;20526;-40
2022/04/10 00:10:03;;;;;;;1.77;1.10;;;;;;;;;;5005915;28;20426;-39
2022/04/10 00:12:29;;;;;;;2.20;1.20;;;;;;;;;;5001713;28;20435;-41
2022/04/10 00:14:55;;;;;;;1.83;1.30;;;;;;;;;;4999969;28;20836;-39
2022/04/10 00:17:21;;;;;;;2.20;1.40;;;;;;;;;;4999142;28;20430;-40
2022/04/10 00:19:47;;;;;;;2.13;1.50;;;;;;;;;;5005644;28;20890;-39
2022/04/10 00:22:13;;;;;;;1.47;1.33;;;;;;;;;;5001161;28;20437;-40
2022/04/10 00:24:40;;;;;;;1.47;1.30;;;;;;;;;;4998857;28;20435;-41
2022/04/10 00:27:07;;;;;;;2.00;1.40;;;;;;;;;;5002523;28;21945;-39
2022/04/10 00:29:33;;;;;;;2.50;1.67;;;;;;;;;;5001636;28;20877;-41
2022/04/10 00:31:59;;;;;;;2.37;1.17;;;;;;;;;;5000146;28;20658;-41
2022/04/10 00:34:25;;;;;;;1.50;1.30;;;;;;;;;;5000442;28;20474;-41
2022/04/10 00:36:51;;;;;;;1.73;1.17;;;;;;;;;;4998398;28;20438;-41
2022/04/10 00:39:17;;;;;;;1.80;1.50;;;;;;;;;;5002125;28;20454;-39
2022/04/10 00:41:44;;;;;;;2.23;1.70;;;;;;;;;;5000440;28;20430;-41
2022/04/10 00:44:11;;;;;;;2.23;1.53;;;;;;;;;;4999899;28;21002;-42
2022/04/10 00:46:38;;;;;;;2.93;1.47;;;;;;;;;;4997426;28;20415;-40
2022/04/10 00:49:05;;;;;;;1.87;1.50;;;;;;;;;;5003543;28;20422;-41
2022/04/10 00:51:41;;;;;;;1.40;1.30;;;;;;;;;;5003572;28;20403;-41
2022/04/10 00:54:17;;;;;;;1.40;1.20;;;;;;;;;;5003747;28;20494;-40
2022/04/10 00:56:44;;;;;;;1.70;1.40;;;;;;;;;;5001210;28;22584;-41
2022/04/10 00:59:10;;;;;;;2.27;1.67;;;;;;;;;;4999888;28;20442;-40
2022/04/10 01:01:37;;;;;;;1.97;1.67;;;;;;;;;;4998722;28;20407;-40
2022/04/10 01:04:04;;;;;;;1.90;1.77;;;;;;;;;;4999802;28;20924;-39
2022/04/10 01:06:32;;;;;;;2.27;1.37;;;;;;;;;;4999560;28;20420;-39
2022/04/10 01:08:58;;;;;;;1.67;1.40;;;;;;;;;;4997874;28;20643;-40
2022/04/10 01:11:25;;;;;;;1.83;1.60;;;;;;;;;;5001234;28;20551;-41
2022/04/10 01:13:53;;;;;;;1.70;1.60;;;;;;;;;;5000064;28;20521;-40
2022/04/10 01:16:20;;;;;;;1.87;1.67;;;;;;;;;;4996791;28;20429;-39
2022/04/10 01:18:46;;;;;;;1.77;1.67;;;;;;;;;;5001177;28;20513;-40
2022/04/10 01:21:12;;;;;;;3.13;1.70;;;;;;;;;;5001294;28;20465;-41
2022/04/10 01:23:38;;;;;;;3.27;2.43;;;;;;;;;;4998901;28;21623;-39
2022/04/10 01:26:04;;;;;;;3.37;2.30;;;;;;;;;;4996455;28;20998;-40
2022/04/10 01:28:31;;;;;;;2.73;2.43;;;;;;;;;;4997935;28;20675;-40
2022/04/10 01:30:57;;;;;;;2.73;2.03;;;;;;;;;;5004426;28;20718;-40
2022/04/10 01:33:23;;;;;;;2.67;2.47;;;;;;;;;;4998484;28;20431;-39
2022/04/10 01:35:49;;;;;;;3.67;3.33;;;;;;;;;;4998994;28;20429;-39
2022/04/10 01:38:15;;;;;;;3.40;3.10;;;;;;;;;;4997120;28;20901;-41
2022/04/10 01:40:41;;;;;;;4.17;3.77;;;;;;;;;;4999879;28;21005;-42
2022/04/10 01:43:07;;;;;;;3.63;2.77;;;;;;;;;;4991890;28;21332;-40
2022/04/10 01:45:33;;;;;;;4.87;3.10;;;;;;;;;;4994377;28;20541;-40
2022/04/10 01:48:00;;;;;;;3.87;3.47;;;;;;;;;;4995207;28;20901;-41
2022/04/10 01:50:26;;;;;;;4.30;3.90;;;;;;;;;;4996355;28;21018;-40
2022/04/10 01:52:53;;;;;;;6.53;4.40;;;;;;;;;;4993614;28;21117;-41
2022/04/10 01:55:19;;;;;;;4.07;3.43;;;;;;;;;;4995074;28;21119;-41
2022/04/10 01:57:46;;;;;;;6.23;4.47;;;;;;;;;;4992954;28;20440;-41
2022/04/10 02:00:12;;;;;;;5.87;4.17;;;;;;;;;;4993087;28;20484;-40
2022/04/10 02:02:38;;;;;;;4.10;3.70;;;;;;;;;;4994007;28;21295;-38
2022/04/10 02:05:04;;;;;;;7.17;4.60;;;;;;;;;;4997676;28;20727;-40
2022/04/10 02:07:30;;;;;;;6.83;6.03;;;;;;;;;;4995270;28;20428;-39
2022/04/10 02:09:56;;;;;;;8.83;6.57;;;;;;;;;;4994491;28;20423;-39
2022/04/10 02:12:22;;;;;;;10.47;7.83;;;;;;;;;;4995671;28;20427;-39
2022/04/10 02:14:48;;;;;;;12.07;10.47;;;;;;;;;;4995890;28;20422;-41
2022/04/10 02:17:14;;;;;;;9.07;8.27;;;;;;;;;;4992979;28;21050;-40
2022/04/10 02:19:41;;;;;;;18.90;17.07;;;;;;;;;;4992482;28;20536;-41
2022/04/10 02:22:07;;;;;;;15.13;13.73;;;;;;;;;;4997151;28;20952;-41
2022/04/10 02:24:33;;;;;;;16.30;14.87;;;;;;;;;;4997156;28;21355;-40
2022/04/10 02:26:59;;;;;;;16.07;14.57;;;;;;;;;;4992710;28;20787;-39
2022/04/10 02:29:25;;;;;;;15.30;13.80;;;;;;;;;;4993242;28;21234;-40
2022/04/10 02:31:51;;;;;;;12.50;11.20;;;;;;;;;;4993857;28;21082;-40
2022/04/10 02:34:17;;;;;;;11.10;9.67;;;;;;;;;;4996796;28;20522;-40
2022/04/10 02:36:43;;;;;;;8.47;7.67;;;;;;;;;;4996089;28;20772;-43
2022/04/10 02:39:09;;;;;;;7.23;6.53;;;;;;;;;;4998606;28;20460;-40
2022/04/10 02:41:35;;;;;;;8.13;7.30;;;;;;;;;;4993008;28;20953;-39
2022/04/10 02:44:01;;;;;;;7.33;6.07;;;;;;;;;;4993499;28;20997;-41
2022/04/10 02:46:27;;;;;;;7.23;6.17;;;;;;;;;;4995801;28;20522;-41
2022/04/10 02:48:53;;;;;;;7.93;6.03;;;;;;;;;;4995381;28;20473;-41
2022/04/10 02:51:20;;;;;;;6.77;6.07;;;;;;;;;;4996963;28;20423;-41
2022/04/10 02:53:46;;;;;;;5.90;5.30;;;;;;;;;;4997243;28;20419;-40
2022/04/10 02:56:12;;;;;;;8.70;7.00;;;;;;;;;;4998409;28;20821;-41
2022/04/10 02:58:38;;;;;;;9.07;6.63;;;;;;;;;;4995460;28;20446;-41
2022/04/10 03:01:04;;;;;;;7.80;6.50;;;;;;;;;;4997873;28;20454;-42
2022/04/10 03:03:30;;;;;;;9.37;7.90;;;;;;;;;;4998280;28;20441;-41
2022/04/10 03:05:56;;;;;;;9.30;8.30;;;;;;;;;;4997475;28;20419;-40
2022/04/10 03:08:22;;;;;;;13.23;9.77;;;;;;;;;;4996729;28;20509;-41
2022/04/10 03:10:49;;;;;;;10.23;8.57;;;;;;;;;;4997547;28;20747;-41
2022/04/10 03:13:16;;;;;;;9.93;8.17;;;;;;;;;;4999248;28;21407;-39
2022/04/10 03:15:42;;;;;;;9.67;6.73;;;;;;;;;;4994053;28;20435;-41
2022/04/10 03:18:08;;;;;;;10.27;7.17;;;;;;;;;;4994317;28;20446;-42
2022/04/10 03:20:34;;;;;;;12.17;9.50;;;;;;;;;;4996120;28;21319;-40
2022/04/10 03:23:00;;;;;;;11.23;8.93;;;;;;;;;;4999067;28;20423;-40
2022/04/10 03:25:26;;;;;;;10.93;8.40;;;;;;;;;;4998253;28;20770;-41
2022/04/10 03:27:52;;;;;;;12.90;9.30;;;;;;;;;;4996914;28;20500;-41
2022/04/10 03:30:18;;;;;;;12.03;9.63;;;;;;;;;;5002266;28;20420;-40
2022/04/10 03:32:44;;;;;;;17.17;10.97;;;;;;;;;;4999186;28;20496;-41
2022/04/10 03:35:11;;;;;;;13.77;10.27;;;;;;;;;;4997229;28;20921;-40
2022/04/10 03:37:37;;;;;;;14.67;10.67;;;;;;;;;;4997363;28;20553;-39
2022/04/10 03:40:04;;;;;;;13.43;9.70;;;;;;;;;;4993958;28;20451;-40
2022/04/10 03:42:37;;;;;;;16.70;11.13;;;;;;;;;;4999325;28;20493;-41
2022/04/10 03:45:03;;;;;;;12.20;9.73;;;;;;;;;;4996991;28;20481;-41
2022/04/10 03:47:29;;;;;;;13.63;9.70;;;;;;;;;;4993302;28;21055;-41
2022/04/10 03:49:55;;;;;;;13.17;9.63;;;;;;;;;;4996211;28;20431;-41
2022/04/10 03:52:21;;;;;;;10.83;8.07;;;;;;;;;;5000781;28;20423;-41
2022/04/10 03:54:47;;;;;;;10.03;7.73;;;;;;;;;;5003457;28;20426;-41
2022/04/10 03:57:13;;;;;;;9.47;7.40;;;;;;;;;;5004174;28;20480;-39
2022/04/10 03:59:40;;;;;;;11.23;7.57;;;;;;;;;;5002819;28;20739;-41
2022/04/10 04:02:06;;;;;;;14.87;7.83;;;;;;;;;;5001635;28;20446;-41
2022/04/10 04:04:32;;;;;;;10.07;7.43;;;;;;;;;;5001943;28;20427;-41
2022/04/10 04:06:58;;;;;;;10.90;7.93;;;;;;;;;;4998487;28;21147;-40
2022/04/10 04:09:25;;;;;;;8.57;6.90;;;;;;;;;;5000913;28;20457;-40
2022/04/10 04:11:51;;;;;;;10.50;8.30;;;;;;;;;;5005708;28;21323;-40
2022/04/10 04:14:19;;;;;;;9.63;8.40;;;;;;;;;;5000787;28;20433;-42
2022/04/10 04:16:45;;;;;;;11.60;9.70;;;;;;;;;;4996034;28;20457;-41
2022/04/10 04:19:11;;;;;;;10.50;8.30;;;;;;;;;;4999585;28;20455;-41
2022/04/10 04:21:37;;;;;;;12.80;10.03;;;;;;;;;;5000702;28;20429;-40
2022/04/10 04:24:03;;;;;;;12.00;9.70;;;;;;;;;;5000719;28;20424;-42
2022/04/10 04:26:29;;;;;;;13.33;9.27;;;;;;;;;;4997655;28;21249;-41
2022/04/10 04:28:55;;;;;;;11.63;10.00;;;;;;;;;;5003620;28;21096;-41
2022/04/10 04:31:21;;;;;;;10.33;8.33;;;;;;;;;;5001806;28;21036;-41
2022/04/10 04:33:47;;;;;;;10.60;8.50;;;;;;;;;;5000614;28;20434;-42
2022/04/10 04:36:13;;;;;;;10.10;8.83;;;;;;;;;;4999588;28;20516;-43
2022/04/10 04:38:40;;;;;;;10.10;8.07;;;;;;;;;;5001459;28;20450;-42
2022/04/10 04:41:10;;;;;;;8.37;7.47;;;;;;;;;;5003881;28;20423;-43
2022/04/10 04:43:36;;;;;;;9.37;7.33;;;;;;;;;;5002494;28;20529;-43
2022/04/10 04:46:02;;;;;;;12.13;8.47;;;;;;;;;;4999242;28;20468;-44
2022/04/10 04:48:28;;;;;;;8.97;7.60;;;;;;;;;;4998865;28;21526;-44
2022/04/10 04:50:55;;;;;;;8.47;7.07;;;;;;;;;;5000722;28;20440;-44
2022/04/10 04:53:21;;;;;;;9.77;8.20;;;;;;;;;;5003166;28;21200;-44
2022/04/10 04:55:47;;;;;;;14.37;9.83;;;;;;;;;;5000543;28;20447;-44
2022/04/10 04:58:13;;;;;;;11.73;10.33;;;;;;;;;;5001500;28;20450;-44
2022/04/10 05:00:39;;;;;;;16.00;12.60;;;;;;;;;;5002664;28;21054;-44
2022/04/10 05:03:05;;;;;;;20.93;15.30;;;;;;;;;;4999484;28;20492;-44
2022/04/10 05:05:31;;;;;;;21.03;15.20;;;;;;;;;;4998990;28;21243;-44
2022/04/10 05:07:57;;;;;;;14.67;13.17;;;;;;;;;;4998052;28;20429;-44
2022/04/10 05:10:23;;;;;;;18.43;13.93;;;;;;;;;;5001608;28;20757;-44
2022/04/10 05:12:49;;;;;;;17.37;13.83;;;;;;;;;;5002409;28;20431;-44
2022/04/10 05:15:16;;;;;;;17.83;14.97;;;;;;;;;;4998825;28;20422;-44
2022/04/10 05:17:42;;;;;;;17.20;14.30;;;;;;;;;;4997631;28;20418;-44
2022/04/10 05:20:08;;;;;;;17.10;14.40;;;;;;;;;;4999294;28;20746;-45
2022/04/10 05:22:34;;;;;;;18.50;13.97;;;;;;;;;;4997649;28;20883;-45
2022/04/10 05:25:00;;;;;;;17.53;13.00;;;;;;;;;;4994314;28;20794;-44
2022/04/10 05:27:27;;;;;;;18.40;12.17;;;;;;;;;;4992851;28;21187;-44
2022/04/10 05:29:53;;;;;;;13.63;12.10;;;;;;;;;;4997433;28;20441;-45
2022/04/10 05:32:19;;;;;;;16.97;11.77;;;;;;;;;;4995859;28;20882;-44
2022/04/10 05:34:45;;;;;;;19.23;12.37;;;;;;;;;;4994297;28;20938;-45
2022/04/10 05:37:11;;;;;;;13.80;10.77;;;;;;;;;;4994695;28;20453;-45
2022/04/10 05:39:39;;;;;;;15.53;10.57;;;;;;;;;;4996719;28;21486;-45
2022/04/10 05:42:06;;;;;;;13.00;10.13;;;;;;;;;;4992854;28;20536;-45
2022/04/10 05:44:33;;;;;;;11.93;9.10;;;;;;;;;;4991434;28;20768;-45
2022/04/10 05:46:59;;;;;;;11.67;9.47;;;;;;;;;;4996009;28;21116;-45
2022/04/10 05:49:25;;;;;;;11.77;9.07;;;;;;;;;;4998663;28;21849;-44
2022/04/10 05:51:52;;;;;;;11.93;9.07;;;;;;;;;;4997486;28;20430;-45
2022/04/10 05:54:18;;;;;;;15.27;9.37;;;;;;;;;;4993359;28;20912;-44
2022/04/10 05:56:44;;;;;;;12.63;8.50;;;;;;;;;;4996312;28;20869;-44
2022/04/10 05:59:10;;;;;;;10.80;8.07;;;;;;;;;;4999162;28;22342;-44
2022/04/10 06:01:36;;;;;;;12.50;7.93;;;;;;;;;;4994216;28;20863;-44
2022/04/10 06:04:02;;;;;;;10.37;6.87;;;;;;;;;;4991708;28;20426;-44
2022/04/10 06:06:28;;;;;;;11.17;7.77;;;;;;;;;;4993750;28;20422;-43
2022/04/10 06:08:54;;;;;;;14.03;6.73;;;;;;;;;;4997097;28;20534;-42
2022/04/10 06:11:20;;;;;;;8.77;5.70;;;;;;;;;;4995894;28;20426;-42
2022/04/10 06:13:46;;;;;;;10.07;7.57;;;;;;;;;;4992804;28;20427;-41
2022/04/10 06:16:13;;;;;;;12.83;7.97;;;;;;;;;;4995205;28;21331;-41
2022/04/10 06:18:39;;;;;;;12.27;7.50;;;;;;;;;;4991226;28;20881;-41
2022/04/10 06:21:05;;;;;;;12.40;6.90;;;;;;;;;;4996010;28;20503;-41
2022/04/10 06:23:31;;;;;;;11.57;7.70;;;;;;;;;;4999081;28;20449;-41
2022/04/10 06:25:57;;;;;;;12.97;9.00;;;;;;;;;;4990740;28;20488;-39
2022/04/10 06:28:23;;;;;;;13.80;8.43;;;;;;;;;;4995529;28;20423;-42
2022/04/10 06:30:49;;;;;;;14.20;8.50;;;;;;;;;;4996165;28;20512;-41
2022/04/10 06:33:15;;;;;;;9.30;6.70;;;;;;;;;;4994635;28;20442;-42
2022/04/10 06:35:41;;;;;;;8.00;5.97;;;;;;;;;;4994646;28;20449;-42
2022/04/10 06:38:08;;;;;;;7.50;5.63;;;;;;;;;;4994284;28;20526;-41
2022/04/10 06:40:34;;;;;;;7.93;5.70;;;;;;;;;;4994375;28;20613;-41
2022/04/10 06:43:00;;;;;;;6.93;4.40;;;;;;;;;;4993054;28;20461;-42
2022/04/10 06:45:26;;;;;;;6.60;4.27;;;;;;;;;;4996979;28;20485;-41
2022/04/10 06:47:52;;;;;;;6.87;4.87;;;;;;;;;;4994374;28;20427;-40
2022/04/10 06:50:18;;;;;;;6.87;4.20;;;;;;;;;;4994278;28;20745;-41
2022/04/10 06:52:44;;;;;;;6.13;4.20;;;;;;;;;;4992267;28;20495;-41
2022/04/10 06:55:11;;;;;;;5.20;3.57;;;;;;;;;;4995552;28;20430;-40
2022/04/10 06:57:37;;;;;;;5.47;3.80;;;;;;;;;;4994517;28;20454;-41
2022/04/10 07:00:03;;;;;;;5.60;3.40;;;;;;;;;;4990790;28;20450;-41
2022/04/10 07:02:29;;;;;;;4.17;3.10;;;;;;;;;;4990872;28;20430;-41
2022/04/10 07:04:56;;;;;;;3.70;2.80;;;;;;;;;;4994055;28;20512;-41
2022/04/10 07:07:22;;;;;;;3.30;2.70;;;;;;;;;;4993740;28;21236;-41
2022/04/10 07:09:48;;;;;;;2.87;2.60;;;;;;;;;;4995105;28;20445;-42
2022/04/10 07:12:14;;;;;;;3.73;2.67;;;;;;;;;;4996331;28;20430;-42
2022/04/10 07:14:40;;;;;;;5.77;2.73;;;;;;;;;;4991532;28;20434;-41
2022/04/10 07:17:06;;;;;;;4.23;3.03;;;;;;;;;;4983631;28;20747;-42
2022/04/10 07:19:32;;;;;;;4.63;2.87;;;;;;;;;;4994792;28;20452;-41
2022/04/10 07:24:43;;;;;;;2.70;2.17;;;;;;;;;;4988800;28;20529;-42
2022/04/10 07:27:09;;;;;;;2.40;1.90;;;;;;;;;;4987394;28;20427;-40
2022/04/10 07:29:35;;;;;;;2.43;1.70;;;;;;;;;;4994736;28;20684;-42
2022/04/10 07:32:03;;;;;;;1.67;1.53;;;;;;;;;;4999283;28;20473;-41
2022/04/10 07:34:29;;;;;;;1.50;1.40;;;;;;;;;;4996830;28;21283;-42
2022/04/10 07:36:56;;;;;;;2.30;1.57;;;;;;;;;;4993830;28;21033;-40
2022/04/10 07:39:22;;;;;;;1.50;1.40;;;;;;;;;;4998155;28;20451;-42
2022/04/10 07:41:48;;;;;;;1.40;1.30;;;;;;;;;;4996654;28;20422;-41
2022/04/10 07:44:14;;;;;;;2.77;1.40;;;;;;;;;;4993461;28;20444;-40
2022/04/10 07:49:25;;;;;;;1.83;1.40;;;;;;;;;;4994763;28;20480;-41
2022/04/10 07:51:51;;;;;;;2.23;1.77;;;;;;;;;;4997331;28;20516;-41
2022/04/10 07:54:18;;;;;;;2.23;1.70;;;;;;;;;;4997313;28;20879;-41
2022/04/10 07:56:44;;;;;;;1.80;1.50;;;;;;;;;;4993622;28;20800;-42
2022/04/10 07:59:10;;;;;;;2.07;1.70;;;;;;;;;;4994269;28;20454;-41
2022/04/10 08:01:37;;;;;;;3.60;1.30;;;;;;;;;;4990719;28;20426;-44
2022/04/10 08:04:04;;;;;;;2.10;1.40;;;;;;;;;;4989906;28;20507;-42
2022/04/10 08:06:30;;;;;;;2.20;1.10;;;;;;;;;;4991829;28;20427;-40
2022/04/10 08:08:56;;;;;;;2.60;1.40;;;;;;;;;;4997782;28;20435;-41
2022/04/10 08:11:23;;;;;;;1.70;1.30;;;;;;;;;;4996496;28;20414;-40
2022/04/10 08:13:50;;;;;;;2.73;1.10;;;;;;;;;;4970783;28;20445;-41
2022/04/10 08:16:16;;;;;;;3.03;1.33;;;;;;;;;;4954836;28;20425;-42
2022/04/10 08:18:42;;;;;;;2.67;1.37;;;;;;;;;;4957761;28;21035;-40
2022/04/10 08:21:08;;;;;;;1.47;1.23;;;;;;;;;;4958851;28;20193;-42
2022/04/10 08:23:34;;;;;;;2.50;1.10;;;;;;;;;;4958443;28;20671;-43
2022/04/10 08:26:00;;;;;;;1.97;1.60;;;;;;;;;;4955236;28;20189;-44
2022/04/10 08:28:27;;;;;;;3.60;1.60;;;;;;;;;;4961096;28;20284;-44
2022/04/10 08:30:53;;;;;;;2.10;1.70;;;;;;;;;;4960572;28;20273;-43
2022/04/10 08:33:19;;;;;;;1.77;1.40;;;;;;;;;;4955742;28;20602;-44
2022/04/10 08:35:45;;;;;;;1.80;1.70;;;;;;;;;;4957598;28;20540;-45
2022/04/10 08:38:12;;;;;;;3.10;2.00;;;;;;;;;;4957594;28;20178;-45
2022/04/10 08:40:38;;;;;;;1.97;1.87;;;;;;;;;;4956875;28;20633;-45
2022/04/10 08:43:06;;;;;;;2.50;1.93;;;;;;;;;;4958556;28;20583;-45
2022/04/10 08:45:32;;;;;;;2.20;2.00;;;;;;;;;;4958503;28;20533;-48
2022/04/10 08:47:59;;;;;;;2.13;1.83;;;;;;;;;;4961232;28;20200;-46
2022/04/10 08:50:28;;;;;;;3.63;2.27;;;;;;;;;;4959143;28;20174;-45
2022/04/10 08:52:58;;;;;;;2.43;2.23;;;;;;;;;;4958986;28;20178;-45
2022/04/10 08:55:24;;;;;;;2.23;2.03;;;;;;;;;;4963007;28;20182;-45
2022/04/10 08:57:51;;;;;;;3.60;2.23;;;;;;;;;;4959185;28;20592;-45
2022/04/10 09:00:19;;;;;;;3.27;2.07;;;;;;;;;;4958861;28;20197;-46
2022/04/10 09:02:49;;;;;;;2.63;1.90;;;;;;;;;;4958581;28;20854;-45
2022/04/10 09:05:33;;;;;;;2.33;2.13;;;;;;;;;;4962010;28;20727;-45
2022/04/10 09:08:06;;;;;;;2.20;2.00;;;;;;;;;;4957130;28;20170;-45
2022/04/10 09:10:53;;;;;;;2.43;2.07;;;;;;;;;;4960469;28;20202;-46
2022/04/10 09:13:32;;;;;;;3.17;1.93;;;;;;;;;;4958357;28;20259;-46
2022/04/10 09:16:11;;;;;;;2.67;1.93;;;;;;;;;;4958441;28;20520;-46
2022/04/10 09:18:47;;;;;;;2.10;1.90;;;;;;;;;;4954525;28;20204;-46
2022/04/10 09:21:14;;;;;;;4.30;1.97;;;;;;;;;;4960093;28;20532;-46
2022/04/10 09:23:40;;;;;;;3.97;2.33;;;;;;;;;;4959991;28;20788;-46
2022/04/10 09:26:06;;;;;;;2.43;2.10;;;;;;;;;;4956894;28;20621;-46
2022/04/10 09:28:42;;;;;;;9.97;2.37;;;;;;;;;;4956787;28;20182;-46
2022/04/10 09:31:23;;;;;;;2.13;1.90;;;;;;;;;;4959874;28;21373;-47
2022/04/10 09:33:50;;;;;;;2.03;1.83;;;;;;;;;;4958566;28;20277;-46
2022/04/10 09:36:27;;;;;;;3.17;2.30;;;;;;;;;;4956436;28;20197;-48
2022/04/10 09:38:53;;;;;;;3.10;2.40;;;;;;;;;;4960200;28;20652;-46
2022/04/10 09:41:21;;;;;;;3.77;2.77;;;;;;;;;;4959045;28;20182;-46
2022/04/10 09:43:47;;;;;;;5.23;2.53;;;;;;;;;;4955107;28;20243;-46
2022/04/10 09:46:13;;;;;;;3.27;2.20;;;;;;;;;;4956566;28;20185;-46
2022/04/10 09:48:40;;;;;;;3.60;2.10;;;;;;;;;;4958064;28;20185;-46
2022/04/10 09:51:06;;;;;;;4.27;2.23;;;;;;;;;;4956917;28;20739;-46
2022/04/10 09:53:33;;;;;;;2.37;2.00;;;;;;;;;;4952830;28;20413;-46
2022/04/10 09:56:03;;;;;;;3.53;2.20;;;;;;;;;;4958007;28;20186;-46
2022/04/10 09:58:29;;;;;;;5.33;2.00;;;;;;;;;;4954902;28;20209;-46
2022/04/10 10:00:56;;;;;;;3.60;2.13;;;;;;;;;;4951837;28;20820;-46
2022/04/10 10:03:28;;;;;;;2.20;1.80;;;;;;;;;;4949704;28;20220;-46
2022/04/10 10:05:55;;;;;;;2.23;2.03;;;;;;;;;;4949632;28;20333;-46
2022/04/10 10:08:22;;;;;;;2.83;2.20;;;;;;;;;;4945852;28;21252;-46
2022/04/10 10:10:48;;;;;;;1.97;1.77;;;;;;;;;;4952237;28;20878;-46
2022/04/10 10:13:15;;;;;;;2.87;2.07;;;;;;;;;;4952485;28;20280;-46
2022/04/10 10:15:41;;;;;;;3.80;2.43;;;;;;;;;;4953936;28;20307;-46
2022/04/10 10:18:09;;;;;;;3.27;2.20;;;;;;;;;;4950235;28;20328;-46
2022/04/10 10:20:36;;;;;;;4.37;2.20;;;;;;;;;;4949589;28;20251;-46
2022/04/10 10:23:08;;;;;;;2.67;2.23;;;;;;;;;;4952520;28;20201;-46
2022/04/10 10:25:37;;;;;;;2.30;2.10;;;;;;;;;;4951775;28;20177;-46
2022/04/10 10:28:22;;;;;;;3.27;2.30;;;;;;;;;;4951920;28;20185;-46
2022/04/10 10:30:50;;;;;;;2.60;1.90;;;;;;;;;;4949108;28;20504;-46
2022/04/10 10:33:18;;;;;;;2.90;1.87;;;;;;;;;;4948440;28;20484;-46
2022/04/10 10:35:45;;;;;;;2.50;2.00;;;;;;;;;;4953373;28;20204;-46
2022/04/10 10:38:23;;;;;;;2.50;2.20;;;;;;;;;;4954040;28;20232;-46
2022/04/10 10:40:50;;;;;;;2.57;2.07;;;;;;;;;;4948504;28;20561;-45
2022/04/10 10:43:20;;;;;;;2.90;2.27;;;;;;;;;;4953212;28;20296;-46
2022/04/10 10:45:49;;;;;;;3.13;2.50;;;;;;;;;;4951536;28;20174;-45
2022/04/10 10:48:33;;;;;;;2.93;2.17;;;;;;;;;;4949262;28;20197;-46
2022/04/10 10:51:03;;;;;;;2.57;1.90;;;;;;;;;;4955910;28;20272;-46
2022/04/10 10:53:48;;;;;;;3.23;2.10;;;;;;;;;;4954877;28;20432;-46
2022/04/10 10:56:20;;;;;;;2.63;2.20;;;;;;;;;;4951528;28;20240;-46
2022/04/10 10:58:50;;;;;;;2.10;1.90;;;;;;;;;;4952230;28;20202;-46
2022/04/10 11:01:18;;;;;;;2.80;2.60;;;;;;;;;;4954361;28;20184;-46
2022/04/10 11:04:06;;;;;;;2.27;1.90;;;;;;;;;;4951517;28;20293;-46
2022/04/10 11:06:44;;;;;;;2.87;2.07;;;;;;;;;;4950576;28;20170;-46
2022/04/10 11:09:29;;;;;;;2.10;1.90;;;;;;;;;;4952814;28;20170;-46
2022/04/10 11:11:57;;;;;;;2.73;1.90;;;;;;;;;;4954363;28;20640;-46
2022/04/10 11:14:35;;;;;;;2.30;1.93;;;;;;;;;;4954352;28;20178;-46
2022/04/10 11:17:21;;;;;;;2.57;1.80;;;;;;;;;;4948946;28;20395;-45
2022/04/10 11:19:54;;;;;;;2.83;2.10;;;;;;;;;;4950522;28;20197;-45
2022/04/10 11:22:34;;;;;;;2.77;2.10;;;;;;;;;;4953737;28;20196;-44
2022/04/10 11:25:01;;;;;;;2.57;2.00;;;;;;;;;;4952898;28;20293;-45
2022/04/10 11:27:46;;;;;;;2.83;2.10;;;;;;;;;;4950079;28;20173;-44
2022/04/10 11:30:14;;;;;;;2.10;2.00;;;;;;;;;;4952627;28;20645;-46
2022/04/10 11:32:41;;;;;;;3.70;2.00;;;;;;;;;;4955487;28;20181;-45
2022/04/10 11:35:13;;;;;;;1.90;1.67;;;;;;;;;;4950111;28;20480;-45
2022/04/10 11:37:40;;;;;;;2.00;1.40;;;;;;;;;;4945955;28;20263;-45
2022/04/10 11:40:07;;;;;;;2.53;1.43;;;;;;;;;;4954967;28;20485;-44
2022/04/10 11:42:33;;;;;;;2.10;1.30;;;;;;;;;;4953800;28;20212;-45
2022/04/10 11:45:00;;;;;;;1.13;1.07;;;;;;;;;;4953354;28;20206;-46
2022/04/10 11:47:26;;;;;;;1.83;1.30;;;;;;;;;;4952061;28;20285;-45
2022/04/10 11:49:53;;;;;;;1.07;1.00;;;;;;;;;;4956614;28;20525;-45
2022/04/10 11:52:19;;;;;;;1.20;1.10;;;;;;;;;;4951838;28;20266;-45
2022/04/10 11:54:46;;;;;;;2.00;1.30;;;;;;;;;;4951243;28;20367;-45
2022/04/10 11:57:12;;;;;;;2.33;1.30;;;;;;;;;;4949940;28;20375;-45
2022/04/10 11:59:39;;;;;;;2.13;1.40;;;;;;;;;;4956175;28;20229;-45
2022/04/10 12:02:08;;;;;;;2.00;1.13;;;;;;;;;;4946305;28;25335;-45
2022/04/10 12:04:36;;;;;;;1.87;1.47;;;;;;;;;;4951376;28;20349;-45
2022/04/10 12:07:16;;;;;;;1.40;1.30;;;;;;;;;;4950828;28;20615;-45
2022/04/10 12:09:43;;;;;;;2.87;1.47;;;;;;;;;;4954105;28;20645;-45
2022/04/10 12:12:10;;;;;;;1.97;1.43;;;;;;;;;;4948963;28;20177;-45
2022/04/10 12:14:36;;;;;;;1.97;1.70;;;;;;;;;;4951074;28;20901;-45
2022/04/10 12:17:02;;;;;;;2.97;1.40;;;;;;;;;;4951234;28;20424;-46
2022/04/10 12:19:35;;;;;;;1.57;1.33;;;;;;;;;;4955592;28;20922;-45
2022/04/10 12:22:08;;;;;;;1.77;1.30;;;;;;;;;;4959372;28;20177;-46
2022/04/10 12:24:38;;;;;;;2.43;1.23;;;;;;;;;;4957850;28;20170;-46
2022/04/10 12:27:08;;;;;;;1.33;1.03;;;;;;;;;;4953860;28;20725;-45
2022/04/10 12:29:38;;;;;;;1.77;1.40;;;;;;;;;;4984527;28;20181;-45
2022/04/10 12:32:04;;;;;;;1.43;0.70;;;;;;;;;;4953486;28;20173;-46
2022/04/10 12:34:35;;;;;;;1.53;1.00;;;;;;;;;;4956920;28;20181;-46
2022/04/10 12:37:08;;;;;;;2.13;1.00;;;;;;;;;;4972373;28;20218;-46
2022/04/10 12:39:34;;;;;;;2.07;1.00;;;;;;;;;;4954527;28;20219;-46
2022/04/10 12:42:08;;;;;;;1.10;1.00;;;;;;;;;;4955869;28;20528;-45
2022/04/10 12:44:35;;;;;;;3.87;1.20;;;;;;;;;;4960100;28;20177;-45
2022/04/10 12:47:01;;;;;;;0.93;0.93;;;;;;;;;;4956977;28;20174;-46
2022/04/10 12:49:27;;;;;;;1.20;1.10;;;;;;;;;;4956776;28;20284;-45
2022/04/10 12:52:00;;;;;;;1.77;1.30;;;;;;;;;;4956684;28;20256;-45
2022/04/10 12:54:55;;;;;;;1.17;1.03;;;;;;;;;;4956562;28;20722;-45
2022/04/10 12:57:29;;;;;;;0.90;0.80;;;;;;;;;;4950300;28;20371;-44
2022/04/10 12:59:55;;;;;;;1.73;0.90;;;;;;;;;;4955348;28;20198;-45
2022/04/10 13:02:24;;;;;;;1.10;1.00;;;;;;;;;;4956184;28;20853;-45
2022/04/10 13:04:54;;;;;;;1.93;0.90;;;;;;;;;;4958815;28;20174;-45
2022/04/10 13:07:21;;;;;;;0.80;0.80;;;;;;;;;;4949785;28;20162;-45
2022/04/10 13:10:05;;;;;;;1.20;0.90;;;;;;;;;;4957930;28;20971;-45
2022/04/10 13:12:32;;;;;;;1.20;1.10;;;;;;;;;;4957761;28;20169;-46
2022/04/10 13:14:58;;;;;;;2.13;1.00;;;;;;;;;;4957646;28;20174;-46
2022/04/10 13:17:31;;;;;;;1.23;0.80;;;;;;;;;;4951056;28;20420;-44
2022/04/10 13:20:05;;;;;;;1.33;0.90;;;;;;;;;;4957062;28;20238;-45
2022/04/10 13:22:31;;;;;;;0.83;0.83;;;;;;;;;;4961199;28;20161;-45
2022/04/10 13:24:57;;;;;;;0.90;0.90;;;;;;;;;;4959811;28;20196;-45
2022/04/10 13:27:23;;;;;;;1.07;0.90;;;;;;;;;;4957435;28;20225;-44
2022/04/10 13:29:49;;;;;;;1.00;0.97;;;;;;;;;;4955992;28;20182;-45
2022/04/10 13:32:17;;;;;;;1.53;0.80;;;;;;;;;;4950778;28;20200;-44
2022/04/10 13:34:43;;;;;;;1.00;0.90;;;;;;;;;;4951700;28;20185;-45
2022/04/10 13:37:09;;;;;;;1.20;0.80;;;;;;;;;;4949787;28;20367;-45
2022/04/10 13:39:36;;;;;;;1.13;1.00;;;;;;;;;;4956424;28;20821;-45
2022/04/10 13:42:03;;;;;;;1.03;0.90;;;;;;;;;;4954964;28;20895;-44
2022/04/10 13:44:29;;;;;;;0.77;0.77;;;;;;;;;;4959942;28;20166;-46
2022/04/10 13:46:55;;;;;;;1.47;0.80;;;;;;;;;;4956962;28;20533;-46
2022/04/10 13:49:21;;;;;;;1.50;0.80;;;;;;;;;;4954236;28;20523;-46
2022/04/10 13:51:47;;;;;;;5.20;0.90;;;;;;;;;;4951174;28;20248;-46
2022/04/10 13:54:14;;;;;;;0.93;0.80;;;;;;;;;;4957158;28;21552;-46
2022/04/10 13:56:40;;;;;;;0.70;0.70;;;;;;;;;;4959324;28;20599;-46
2022/04/10 13:59:07;;;;;;;1.13;0.83;;;;;;;;;;4956009;28;20659;-46
2022/04/10 14:01:33;;;;;;;0.70;0.70;;;;;;;;;;4957052;28;20580;-46
2022/04/10 14:04:00;;;;;;;0.87;0.87;;;;;;;;;;4955122;28;20302;-46
2022/04/10 14:06:26;;;;;;;0.90;0.80;;;;;;;;;;4956636;28;20169;-46
2022/04/10 14:08:52;;;;;;;1.67;0.80;;;;;;;;;;4958777;28;20193;-45
2022/04/10 14:11:19;;;;;;;1.10;0.83;;;;;;;;;;4959427;28;20293;-46
2022/04/10 14:13:45;;;;;;;1.17;0.87;;;;;;;;;;4959080;28;20260;-46
2022/04/10 14:16:11;;;;;;;1.77;1.00;;;;;;;;;;4961511;28;20320;-46
2022/04/10 14:18:38;;;;;;;0.80;0.80;;;;;;;;;;4957426;28;23437;-46
2022/04/10 14:21:04;;;;;;;1.60;1.00;;;;;;;;;;4957076;28;20169;-46
2022/04/10 14:23:30;;;;;;;1.07;1.00;;;;;;;;;;4959237;28;20993;-46
2022/04/10 14:25:56;;;;;;;1.67;1.07;;;;;;;;;;4958628;28;21049;-46
2022/04/10 14:28:22;;;;;;;1.37;1.10;;;;;;;;;;4955810;28;20176;-45
2022/04/10 14:30:48;;;;;;;1.10;1.00;;;;;;;;;;4960213;28;20182;-46
2022/04/10 14:33:14;;;;;;;1.23;1.10;;;;;;;;;;4957579;28;20184;-46
2022/04/10 14:35:40;;;;;;;1.27;1.00;;;;;;;;;;4958143;28;20216;-46
2022/04/10 14:38:07;;;;;;;1.30;1.00;;;;;;;;;;4952681;28;20174;-46
2022/04/10 14:40:33;;;;;;;1.00;0.90;;;;;;;;;;4954650;28;21128;-46
2022/04/10 14:42:59;;;;;;;2.33;1.03;;;;;;;;;;4953711;28;20189;-46
2022/04/10 14:45:25;;;;;;;2.03;1.27;;;;;;;;;;4957614;28;20193;-46